createdAt,value
2022-08-21T00:06:38.261Z,13.27
2022-08-21T00:17:00.249Z,13.00
2022-08-21T00:27:23.142Z,16.48
2022-08-21T00:37:44.666Z,12.00
2022-08-21T00:48:07.953Z,16.05
2022-08-21T00:58:31.617Z,13.20
2022-08-21T01:08:54.650Z,12.63
2022-08-21T01:19:17.887Z,16.50
2022-08-21T01:29:46.378Z,11.07
2022-08-21T01:40:09.753Z,12.75
2022-08-21T01:50:33.260Z,14.82
2022-08-21T02:00:55.445Z,11.32
2022-08-21T02:11:18.221Z,12.05
2022-08-21T02:21:39.539Z,9.35
2022-08-21T02:32:02.478Z,9.57
2022-08-21T02:42:25.150Z,12.00
2022-08-21T02:52:48.717Z,8.35
2022-08-21T03:03:14.714Z,10.82
2022-08-21T03:13:37.776Z,9.30
2022-08-21T03:23:59.493Z,13.13
2022-08-21T03:34:27.320Z,8.05
2022-08-21T03:44:49.119Z,8.30
2022-08-21T03:55:11.872Z,10.50
2022-08-21T04:05:33.961Z,9.75
2022-08-21T04:15:58.977Z,10.93
2022-08-21T04:26:20.569Z,8.55
2022-08-21T04:36:43.344Z,8.95
2022-08-21T04:47:06.751Z,8.98
2022-08-21T04:57:39.747Z,10.68
2022-08-21T05:08:14.285Z,11.40
2022-08-21T05:18:37.155Z,10.83
2022-08-21T05:28:58.944Z,8.05
2022-08-21T05:39:22.004Z,14.68
2022-08-21T05:49:43.599Z,10.60
2022-08-21T06:00:09.767Z,12.75
2022-08-21T06:10:34.292Z,10.25
2022-08-21T06:20:56.964Z,8.75
2022-08-21T06:31:22.011Z,9.18
2022-08-21T06:41:44.937Z,8.50
2022-08-21T06:52:11.866Z,9.48
2022-08-21T07:02:35.036Z,9.48
2022-08-21T07:13:00.521Z,12.85
2022-08-21T07:23:28.564Z,11.52
2022-08-21T07:33:49.830Z,9.40
2022-08-21T07:44:12.744Z,5.00
2022-08-21T07:54:37.145Z,6.85
2022-08-21T08:05:02.846Z,4.90
2022-08-21T08:15:27.113Z,7.60
2022-08-21T08:25:50.553Z,5.22
2022-08-21T08:36:16.711Z,6.00
2022-08-21T08:46:43.857Z,6.75
2022-08-21T08:57:12.741Z,7.07
2022-08-21T09:07:42.087Z,9.63
2022-08-21T09:18:26.539Z,6.88
2022-08-21T09:28:54.526Z,7.88
2022-08-21T09:39:25.833Z,4.45
2022-08-21T09:49:48.645Z,6.70
2022-08-21T10:00:17.320Z,3.90
2022-08-21T10:10:40.482Z,5.32
2022-08-21T10:21:12.102Z,4.75
2022-08-21T10:31:50.604Z,4.40
2022-08-21T10:42:28.493Z,5.57
2022-08-21T10:53:19.842Z,5.60
2022-08-21T11:03:46.336Z,3.13
2022-08-21T11:14:26.846Z,6.50
2022-08-21T11:24:54.479Z,5.75
2022-08-21T11:35:25.500Z,7.10
2022-08-21T11:45:50.835Z,6.63
2022-08-21T11:56:20.027Z,3.45
2022-08-21T12:06:43.346Z,4.00
2022-08-21T12:17:12.207Z,5.30
2022-08-21T12:27:48.274Z,4.65
2022-08-21T12:38:16.765Z,4.30
2022-08-21T12:48:47.296Z,3.60
2022-08-21T12:59:14.666Z,6.70
2022-08-21T13:09:37.031Z,3.42
2022-08-21T13:20:02.150Z,2.33
2022-08-21T13:30:24.551Z,2.30
2022-08-21T13:40:51.626Z,8.85
2022-08-21T13:51:12.869Z,3.95
2022-08-21T14:01:40.893Z,2.77
2022-08-21T14:12:13.586Z,5.10
2022-08-21T14:22:48.237Z,6.53
2022-08-21T14:33:12.314Z,3.30
2022-08-21T14:43:35.330Z,8.73
2022-08-21T14:53:56.857Z,5.70
2022-08-21T15:04:19.720Z,5.15
2022-08-21T15:14:42.175Z,5.20
2022-08-21T15:25:05.736Z,5.20
2022-08-21T15:35:27.519Z,7.28
2022-08-21T15:45:50.739Z,11.18
2022-08-21T15:56:16.600Z,8.45
2022-08-21T16:06:55.593Z,6.80
2022-08-21T16:17:22.456Z,4.35
2022-08-21T16:38:09.679Z,6.88
2022-08-21T16:48:32.443Z,11.07
2022-08-21T16:58:56.185Z,5.77
2022-08-21T17:09:19.431Z,11.77
2022-08-21T17:19:42.038Z,9.35
2022-08-21T17:30:07.201Z,9.25
2022-08-21T17:40:29.446Z,7.22
2022-08-21T17:50:52.444Z,8.93
2022-08-21T18:01:14.049Z,9.45
2022-08-21T18:11:37.492Z,9.07
2022-08-21T18:22:03.892Z,12.73
2022-08-21T18:32:31.496Z,6.32
2022-08-21T18:42:55.888Z,11.45
2022-08-21T18:53:27.617Z,12.68
2022-08-21T19:03:50.895Z,10.20
2022-08-21T19:14:17.368Z,8.18
2022-08-21T19:24:40.973Z,8.65
2022-08-21T19:35:17.563Z,11.52
2022-08-21T19:45:43.578Z,12.82
2022-08-21T19:56:15.791Z,13.88
2022-08-21T20:06:38.301Z,8.80
2022-08-21T20:17:05.967Z,11.30
2022-08-21T20:27:31.649Z,10.88
2022-08-21T20:38:03.685Z,11.15
2022-08-21T20:48:28.934Z,15.10
2022-08-21T20:58:58.775Z,10.77
2022-08-21T21:09:31.981Z,12.05
2022-08-21T21:19:59.195Z,13.90
2022-08-21T21:30:23.651Z,15.00
2022-08-21T21:40:58.520Z,11.95
2022-08-21T21:51:35.282Z,10.17
2022-08-21T22:02:08.008Z,13.43
2022-08-21T22:12:49.570Z,11.68
2022-08-21T22:23:17.883Z,12.82
2022-08-21T22:33:39.657Z,9.48
2022-08-21T22:44:06.031Z,11.35
2022-08-21T22:54:35.005Z,15.43
2022-08-21T23:05:01.550Z,11.85
2022-08-21T23:15:24.469Z,13.77
2022-08-21T23:26:01.879Z,13.60
2022-08-21T23:37:02.777Z,12.25
2022-08-21T23:47:40.701Z,12.75
2022-08-21T23:58:15.517Z,11.85
